Time;durP1;ratioP1;P1;durP2;ratioP2;P2;SDS_P1;SDS_P2;PMS_P1;PMS_P2;Temp;Humidity;BMP_temperature;BMP_pressure;BME280_temperature;BME280_humidity;BME280_pressure;Samples;Min_cycle;Max_cycle;Signal;HPM_P1;HPM_P2
2022/05/21 00:01:02;;;;;;;2.72;1.73;;;;;;;9.34;87.90;95437.75;5040298;27;20048;-72
2022/05/21 00:03:29;;;;;;;2.78;1.52;;;;;;;9.29;88.21;95445.41;5043569;27;20120;-72
2022/05/21 00:05:56;;;;;;;3.15;1.67;;;;;;;9.10;88.99;95435.91;5073812;27;20036;-72
2022/05/21 00:08:23;;;;;;;5.28;3.60;;;;;;;9.24;88.77;95442.63;5080602;27;20039;-73
2022/05/21 00:10:53;;;;;;;3.78;1.65;;;;;;;9.20;89.32;95444.06;5067987;27;20053;-72
2022/05/21 00:13:20;;;;;;;6.13;1.80;;;;;;;9.06;90.18;95434.72;5065479;27;20048;-73
2022/05/21 00:15:47;;;;;;;8.57;1.95;;;;;;;9.06;90.53;95442.53;5042761;27;20057;-73
2022/05/21 00:18:14;;;;;;;2.67;1.95;;;;;;;9.01;89.55;95421.56;5047355;27;20472;-73
2022/05/21 00:20:47;;;;;;;2.65;1.80;;;;;;;8.93;88.82;95420.78;5060970;27;20038;-73
2022/05/21 00:23:17;;;;;;;2.38;1.60;;;;;;;8.84;89.63;95440.19;5082560;27;20560;-74
2022/05/21 00:25:46;;;;;;;3.53;1.75;;;;;;;8.73;89.45;95435.63;5074161;27;20519;-73
2022/05/21 00:28:14;;;;;;;4.57;2.17;;;;;;;8.57;89.23;95427.28;5045674;27;20045;-73
2022/05/21 00:30:41;;;;;;;3.38;2.25;;;;;;;8.42;88.05;95429.28;5056294;27;20048;-73
2022/05/21 00:33:08;;;;;;;5.05;2.03;;;;;;;8.13;87.50;95415.72;5039488;27;20052;-73
2022/05/21 00:35:35;;;;;;;2.83;1.85;;;;;;;8.04;86.13;95416.91;5057984;27;20052;-73
2022/05/21 00:38:02;;;;;;;5.15;1.92;;;;;;;7.85;86.38;95434.88;5070256;27;20052;-74
2022/05/21 00:40:29;;;;;;;5.60;2.25;;;;;;;7.78;88.29;95431.47;5085906;27;20209;-73
2022/05/21 00:42:57;;;;;;;4.43;2.03;;;;;;;7.81;89.65;95428.50;5081721;27;20124;-73
2022/05/21 00:45:24;;;;;;;3.38;2.20;;;;;;;7.80;89.41;95432.09;5057569;27;20072;-74
2022/05/21 00:47:51;;;;;;;3.65;1.60;;;;;;;7.75;88.85;95433.69;5040208;27;20032;-74
2022/05/21 00:50:22;;;;;;;5.78;2.22;;;;;;;7.71;89.16;95430.69;5059696;27;20037;-73
2022/05/21 00:52:51;;;;;;;4.40;2.42;;;;;;;7.66;90.21;95420.09;5037445;27;20052;-73
2022/05/21 00:55:24;;;;;;;3.45;2.20;;;;;;;7.63;90.95;95415.31;5045861;27;20124;-73
2022/05/21 01:00:53;;;;;;;3.33;1.65;;;;;;;7.53;92.54;95401.94;5087558;27;20045;-74
2022/05/21 01:03:20;;;;;;;2.83;1.63;;;;;;;7.49;93.58;95401.53;5080135;27;20049;-74
2022/05/21 01:05:48;;;;;;;4.90;2.10;;;;;;;7.46;93.88;95410.50;5034768;27;20045;-74
2022/05/21 01:08:17;;;;;;;4.57;1.83;;;;;;;7.35;94.81;95408.50;5036674;27;20041;-73
2022/05/21 01:10:50;;;;;;;3.13;1.85;;;;;;;7.18;96.16;95402.06;5079894;27;20056;-73
2022/05/21 01:13:21;;;;;;;5.40;2.50;;;;;;;7.18;98.03;95408.03;5048112;27;20515;-74
2022/05/21 01:15:53;;;;;;;2.63;1.83;;;;;;;7.16;98.90;95404.03;5070045;27;20044;-73
2022/05/21 01:18:21;;;;;;;3.92;2.40;;;;;;;7.07;99.00;95386.06;5047242;27;21396;-73
2022/05/21 01:20:54;;;;;;;4.38;2.10;;;;;;;7.22;98.23;95405.84;5047021;27;20049;-73
2022/05/21 01:23:21;;;;;;;2.85;1.73;;;;;;;7.15;97.27;95381.72;5056300;27;20041;-73
2022/05/21 01:25:49;;;;;;;4.05;2.10;;;;;;;7.19;96.37;95398.50;5066507;27;20057;-73
2022/05/21 01:28:21;;;;;;;2.65;1.42;;;;;;;7.16;97.49;95396.28;5048841;27;20240;-74
2022/05/21 01:30:53;;;;;;;4.63;2.38;;;;;;;7.05;98.64;95385.47;5063544;27;20041;-73
2022/05/21 01:33:24;;;;;;;2.55;1.63;;;;;;;7.14;99.26;95396.47;5055275;27;20048;-73
2022/05/21 01:35:51;;;;;;;7.95;2.40;;;;;;;7.19;99.61;95393.31;5123115;27;20886;-73
2022/05/21 01:38:19;;;;;;;3.03;1.92;;;;;;;7.21;99.80;95386.13;5055457;27;20075;-73
2022/05/21 01:40:47;;;;;;;4.78;2.22;;;;;;;7.29;99.18;95388.53;5068822;27;20043;-73
2022/05/21 01:46:00;;;;;;;2.30;1.65;;;;;;;7.38;98.95;95381.38;5041626;27;20563;-73
2022/05/21 01:48:28;;;;;;;4.35;2.05;;;;;;;7.50;98.71;95394.56;5052640;27;20121;-73
2022/05/21 01:51:05;;;;;;;7.07;2.50;;;;;;;7.60;97.90;95397.56;5034703;27;20361;-72
2022/05/21 01:53:32;;;;;;;3.25;2.20;;;;;;;7.66;97.01;95389.78;5037429;27;20044;-73
2022/05/21 01:56:00;;;;;;;3.08;2.17;;;;;;;7.55;96.12;95381.81;5042660;27;20045;-73
2022/05/21 01:58:28;;;;;;;5.53;1.88;;;;;;;7.61;94.91;95386.97;5065072;27;20449;-73
2022/05/21 02:00:56;;;;;;;6.80;2.28;;;;;;;7.52;93.63;95384.78;5065159;27;20123;-73
2022/05/21 02:03:24;;;;;;;3.88;1.65;;;;;;;7.22;93.62;95362.63;5050014;27;20105;-73
2022/05/21 02:05:51;;;;;;;4.05;2.40;;;;;;;7.21;94.75;95365.41;5046781;27;20041;-72
2022/05/21 02:08:18;;;;;;;2.80;2.05;;;;;;;7.27;95.47;95377.56;5047098;27;20584;-72
2022/05/21 02:10:46;;;;;;;3.40;2.10;;;;;;;7.18;95.42;95368.38;5116513;27;20045;-72
2022/05/21 02:13:18;;;;;;;4.80;1.73;;;;;;;7.18;94.98;95370.97;5042817;27;20566;-72
2022/05/21 02:15:45;;;;;;;4.00;1.55;;;;;;;7.14;94.96;95370.56;5079855;27;20034;-72
2022/05/21 02:18:14;;;;;;;2.67;1.92;;;;;;;7.16;95.08;95362.59;5121908;27;20041;-73
2022/05/21 02:20:41;;;;;;;5.25;2.10;;;;;;;7.00;96.04;95374.91;5044706;27;20463;-72
2022/05/21 02:23:10;;;;;;;2.85;2.00;;;;;;;7.03;95.21;95371.13;5037989;27;20044;-72
2022/05/21 02:25:39;;;;;;;5.15;1.92;;;;;;;6.85;95.47;95358.72;5039231;27;20547;-72
2022/05/21 02:28:07;;;;;;;7.07;1.98;;;;;;;6.82;96.13;95359.91;5025086;27;20106;-72
2022/05/21 02:30:34;;;;;;;3.00;1.85;;;;;;;6.79;95.97;95346.53;5039181;27;20553;-74
2022/05/21 02:33:02;;;;;;;3.10;2.00;;;;;;;6.92;94.86;95374.31;5056840;27;20045;-74
2022/05/21 02:35:28;;;;;;;3.90;1.90;;;;;;;6.78;95.38;95370.84;5036356;27;20052;-74
2022/05/21 02:40:41;;;;;;;2.15;1.60;;;;;;;6.58;96.35;95366.38;5064093;27;20078;-74
2022/05/21 02:43:08;;;;;;;3.15;1.58;;;;;;;6.46;97.16;95360.16;5072932;27;20037;-74
2022/05/21 02:45:35;;;;;;;6.93;1.85;;;;;;;6.56;96.95;95357.22;5068811;27;20046;-73
2022/05/21 02:48:02;;;;;;;4.00;1.80;;;;;;;6.48;96.96;95353.00;5073722;27;20056;-73
2022/05/21 02:50:33;;;;;;;5.88;3.20;;;;;;;6.42;97.71;95357.16;5060201;27;20083;-73
2022/05/21 02:53:02;;;;;;;4.72;2.00;;;;;;;6.39;99.00;95362.72;5075246;27;20038;-73
2022/05/21 02:55:29;;;;;;;2.15;1.67;;;;;;;6.41;99.97;95365.09;5083200;27;20041;-73
2022/05/21 02:57:57;;;;;;;7.10;1.73;;;;;;;6.51;99.68;95368.16;5089011;27;20032;-73
2022/05/21 03:00:27;;;;;;;9.40;2.35;;;;;;;6.45;98.61;95351.59;5060877;27;20052;-72
2022/05/21 03:02:55;;;;;;;2.60;1.90;;;;;;;6.54;97.72;95370.34;5063078;27;20056;-73
2022/05/21 03:05:22;;;;;;;5.97;2.53;;;;;;;6.36;97.46;95351.97;5062686;27;20264;-73
2022/05/21 03:07:52;;;;;;;10.13;1.95;;;;;;;6.30;97.90;95369.84;5046679;27;20048;-73
2022/05/21 03:10:26;;;;;;;5.88;2.22;;;;;;;6.30;98.80;95369.84;5065326;27;20037;-73
2022/05/21 03:13:02;;;;;;;2.70;1.63;;;;;;;6.43;100.00;95363.16;5057921;27;20054;-73
2022/05/21 03:15:35;;;;;;;7.53;2.00;;;;;;;6.42;99.77;95366.72;5041782;27;20043;-75
2022/05/21 03:18:06;;;;;;;3.70;2.00;;;;;;;6.37;99.54;95354.34;5054380;27;20044;-74
2022/05/21 03:20:38;;;;;;;6.13;1.95;;;;;;;6.43;98.80;95368.31;5039126;27;20045;-74
2022/05/21 03:23:06;;;;;;;6.35;3.03;;;;;;;6.40;99.49;95368.69;5042377;27;20091;-71
2022/05/21 03:25:34;;;;;;;2.35;1.67;;;;;;;6.35;99.35;95376.22;5040849;27;20435;-71
2022/05/21 03:28:01;;;;;;;2.67;1.50;;;;;;;6.27;99.31;95349.53;5039494;27;20073;-72
2022/05/21 03:30:30;;;;;;;4.55;1.83;;;;;;;6.36;99.12;95367.50;5036453;27;20045;-71
2022/05/21 03:32:57;;;;;;;8.20;2.25;;;;;;;6.23;99.11;95368.19;5039924;27;20045;-72
2022/05/21 03:35:25;;;;;;;5.45;1.95;;;;;;;6.35;99.69;95371.06;5033926;27;20542;-73
2022/05/21 03:37:52;;;;;;;3.00;1.63;;;;;;;6.42;100.00;95367.50;5038585;27;20056;-72
2022/05/21 03:40:24;;;;;;;2.83;1.80;;;;;;;6.39;100.00;95346.38;5038234;27;20040;-72
2022/05/21 03:42:54;;;;;;;5.20;2.33;;;;;;;6.65;100.00;95377.56;5034630;27;20274;-72
2022/05/21 03:45:22;;;;;;;3.10;1.77;;;;;;;6.75;100.00;95372.03;5036615;27;20044;-72
2022/05/21 03:47:50;;;;;;;2.90;1.90;;;;;;;7.00;100.00;95380.06;5039744;27;20049;-73
2022/05/21 03:50:20;;;;;;;4.50;2.15;;;;;;;7.18;100.00;95387.31;5039163;27;20463;-72
2022/05/21 03:52:47;;;;;;;11.35;3.55;;;;;;;7.39;100.00;95391.53;5032354;27;20571;-71
2022/05/21 03:55:15;;;;;;;3.85;2.35;;;;;;;7.51;100.00;95385.78;5040344;27;20465;-72
2022/05/21 03:57:42;;;;;;;7.70;3.30;;;;;;;7.63;100.00;95381.59;5050287;27;20439;-72
2022/05/21 04:00:13;;;;;;;7.85;4.28;;;;;;;7.82;100.00;95404.16;5035793;27;20597;-70
2022/05/21 04:02:42;;;;;;;5.22;2.08;;;;;;;7.93;100.00;95404.56;5031630;27;20045;-71
2022/05/21 04:05:12;;;;;;;3.75;2.40;;;;;;;7.86;100.00;95383.81;5032660;27;20052;-70
2022/05/21 04:07:39;;;;;;;6.18;2.08;;;;;;;7.74;99.42;95338.72;5069275;27;20116;-70
2022/05/21 04:10:10;;;;;;;4.13;1.88;;;;;;;7.80;97.63;95317.97;5067603;27;20046;-71
2022/05/21 04:12:37;;;;;;;6.38;2.67;;;;;;;8.50;97.24;95400.53;5056281;27;20106;-71
2022/05/21 04:15:05;;;;;;;6.95;3.17;;;;;;;8.51;97.20;95381.34;5057609;27;20461;-70
2022/05/21 04:17:32;;;;;;;6.40;3.25;;;;;;;8.36;97.16;95331.44;5054827;27;20045;-70
2022/05/21 04:19:59;;;;;;;3.65;2.28;;;;;;;8.36;97.39;95305.50;5072951;27;20100;-72
2022/05/21 04:22:26;;;;;;;4.88;2.70;;;;;;;8.65;96.49;95321.59;5061316;27;22154;-71
2022/05/21 04:24:53;;;;;;;3.80;2.80;;;;;;;8.69;95.19;95309.78;5034423;27;20137;-71
2022/05/21 04:27:20;;;;;;;4.10;2.53;;;;;;;9.22;94.21;95361.47;5038248;27;20041;-71
2022/05/21 04:29:47;;;;;;;8.65;3.08;;;;;;;9.53;93.87;95393.69;5016813;27;20068;-70
2022/05/21 04:32:14;;;;;;;3.78;2.42;;;;;;;9.58;93.04;95386.06;5033593;27;20454;-71
2022/05/21 04:34:41;;;;;;;3.53;2.20;;;;;;;9.85;92.32;95411.84;5042941;27;20048;-76
2022/05/21 04:37:08;;;;;;;8.18;3.67;;;;;;;10.07;91.64;95420.91;5066276;27;20528;-69
2022/05/21 04:39:36;;;;;;;4.47;2.63;;;;;;;10.21;91.00;95416.38;5070357;27;20039;-68
2022/05/21 04:42:03;;;;;;;5.10;3.17;;;;;;;10.34;88.98;95415.50;5054590;27;20045;-69
2022/05/21 04:44:31;;;;;;;3.60;2.40;;;;;;;10.46;87.08;95413.78;5045095;27;20037;-69
2022/05/21 04:46:58;;;;;;;6.97;3.45;;;;;;;10.59;86.63;95412.03;5031757;27;20057;-69
2022/05/21 04:49:27;;;;;;;6.28;3.25;;;;;;;10.75;87.02;95414.09;5037990;27;20059;-69
2022/05/21 04:51:54;;;;;;;4.18;2.67;;;;;;;10.82;86.92;95417.41;5045515;27;20049;-68
2022/05/21 04:54:20;;;;;;;5.43;2.83;;;;;;;10.86;86.37;95417.78;5040453;27;20147;-69
2022/05/21 04:56:47;;;;;;;3.70;2.58;;;;;;;10.90;86.57;95393.66;5077611;27;20042;-69
2022/05/21 04:59:14;;;;;;;5.82;3.35;;;;;;;11.05;86.57;95402.91;5043090;27;20499;-69
2022/05/21 05:01:41;;;;;;;6.65;3.13;;;;;;;11.14;86.64;95401.59;5055149;27;20040;-69
2022/05/21 05:04:08;;;;;;;5.40;3.08;;;;;;;11.22;86.64;95397.91;5083965;27;20052;-69
2022/05/21 05:06:37;;;;;;;5.20;2.60;;;;;;;11.25;86.48;95406.09;5076579;27;20693;-69
2022/05/21 05:09:08;;;;;;;4.72;3.17;;;;;;;11.40;85.19;95407.50;5083338;27;20031;-69
2022/05/21 05:11:34;;;;;;;3.75;2.40;;;;;;;11.47;85.18;95408.19;5051876;27;20052;-69
2022/05/21 05:14:02;;;;;;;4.50;2.95;;;;;;;11.55;85.08;95410.47;5064146;27;20037;-69
2022/05/21 05:16:30;;;;;;;4.13;2.70;;;;;;;11.72;84.07;95409.84;5082804;27;20096;-69
2022/05/21 05:18:57;;;;;;;3.72;2.45;;;;;;;11.84;82.39;95421.09;5039526;27;20113;-69
2022/05/21 05:21:24;;;;;;;7.60;3.72;;;;;;;11.95;80.99;95425.56;5075365;27;20040;-69
2022/05/21 05:23:51;;;;;;;6.97;2.72;;;;;;;12.08;79.72;95423.78;5026519;27;20561;-69
2022/05/21 05:26:19;;;;;;;5.13;3.05;;;;;;;12.17;79.62;95411.97;5040496;27;20515;-69
2022/05/21 05:28:46;;;;;;;4.68;2.75;;;;;;;12.19;77.05;95408.13;5070775;27;20112;-69
2022/05/21 05:31:13;;;;;;;4.82;2.58;;;;;;;12.25;76.49;95409.03;5085565;27;20525;-69
2022/05/21 05:33:40;;;;;;;5.10;3.45;;;;;;;12.45;77.63;95407.91;5082767;27;20432;-69
2022/05/21 05:36:07;;;;;;;4.90;3.05;;;;;;;12.56;78.44;95401.88;5063268;27;20428;-69
2022/05/21 05:38:35;;;;;;;4.35;2.60;;;;;;;12.71;77.66;95407.44;5037238;27;20581;-69
2022/05/21 05:41:05;;;;;;;6.07;3.03;;;;;;;12.67;76.60;95390.59;5084481;27;20222;-69
2022/05/21 05:43:32;;;;;;;5.10;3.00;;;;;;;12.88;75.66;95401.50;5038919;27;20097;-69
2022/05/21 05:45:59;;;;;;;4.55;2.70;;;;;;;13.01;72.82;95386.31;5050449;27;20052;-69
2022/05/21 05:48:27;;;;;;;5.10;2.85;;;;;;;13.08;70.77;95386.19;5064864;27;20147;-69
2022/05/21 05:50:59;;;;;;;6.20;3.03;;;;;;;13.11;70.95;95390.97;5088182;27;20049;-69
2022/05/21 05:53:26;;;;;;;6.60;3.38;;;;;;;13.12;70.40;95374.22;5088757;27;20056;-68
2022/05/21 05:55:52;;;;;;;6.75;3.45;;;;;;;13.35;70.56;95398.75;5048930;27;20060;-69
2022/05/21 06:01:07;;;;;;;5.13;3.33;;;;;;;13.57;70.05;95383.97;5047435;27;20041;-69
2022/05/21 06:03:36;;;;;;;6.78;2.92;;;;;;;13.64;71.12;95369.94;5067985;27;20045;-69
2022/05/21 06:06:05;;;;;;;9.07;3.38;;;;;;;13.95;70.67;95385.13;5086207;27;20067;-69
2022/05/21 06:08:33;;;;;;;4.82;3.60;;;;;;;14.10;70.76;95373.28;5038418;27;20052;-69
2022/05/21 06:11:00;;;;;;;5.03;3.42;;;;;;;14.23;70.27;95386.06;5081056;27;20503;-69
2022/05/21 06:13:27;;;;;;;5.35;3.13;;;;;;;14.11;70.62;95377.47;5038820;27;20048;-69
2022/05/21 06:15:54;;;;;;;8.07;3.53;;;;;;;14.34;70.33;95372.06;5079503;27;20511;-69
2022/05/21 06:18:22;;;;;;;6.18;3.22;;;;;;;14.50;69.17;95374.91;5077451;27;20049;-69
2022/05/21 06:20:50;;;;;;;7.68;3.22;;;;;;;14.57;66.93;95375.53;5072173;27;20120;-69
2022/05/21 06:23:20;;;;;;;8.90;3.45;;;;;;;14.77;66.80;95367.16;5054228;27;20041;-69
2022/05/21 06:25:47;;;;;;;15.98;3.28;;;;;;;14.85;66.35;95350.19;5037107;27;20045;-68
2022/05/21 06:28:14;;;;;;;4.72;2.92;;;;;;;15.04;65.93;95353.28;5039778;27;20048;-69
2022/05/21 06:30:43;;;;;;;6.40;2.90;;;;;;;15.25;65.22;95344.59;5037304;27;20771;-68
2022/05/21 06:33:30;;;;;;;4.90;2.58;;;;;;;15.44;62.49;95352.91;5069713;27;20057;-68
2022/05/21 06:36:10;;;;;;;5.75;3.17;;;;;;;15.63;63.26;95344.69;5038745;27;20046;-69
2022/05/21 06:38:38;;;;;;;5.15;2.83;;;;;;;15.77;60.59;95345.88;5055891;27;20529;-69
2022/05/21 06:41:05;;;;;;;4.22;2.35;;;;;;;15.82;59.80;95343.28;5037306;27;20056;-69
2022/05/21 06:43:32;;;;;;;3.83;2.28;;;;;;;15.73;58.52;95339.50;5038357;27;20045;-69
2022/05/21 06:45:59;;;;;;;8.77;2.72;;;;;;;15.84;59.24;95335.16;5049886;27;20034;-68
2022/05/21 06:48:26;;;;;;;4.22;2.00;;;;;;;16.03;57.89;95335.56;5078305;27;20044;-69
2022/05/21 06:50:57;;;;;;;7.88;2.63;;;;;;;16.17;56.87;95328.81;5091581;27;20075;-69
2022/05/21 06:53:24;;;;;;;3.83;2.60;;;;;;;16.31;55.88;95325.72;5067653;27;20517;-69
2022/05/21 06:55:54;;;;;;;4.40;2.28;;;;;;;16.47;54.96;95316.88;5042596;27;20060;-70
2022/05/21 06:58:21;;;;;;;2.72;1.92;;;;;;;16.68;52.72;95327.50;5058794;27;20102;-70
2022/05/21 07:00:48;;;;;;;2.95;1.80;;;;;;;16.84;51.68;95326.53;5074404;27;20484;-70
2022/05/21 07:03:15;;;;;;;4.35;2.40;;;;;;;17.12;51.68;95308.72;5063706;27;20040;-70
2022/05/21 07:08:28;;;;;;;5.25;2.28;;;;;;;17.38;53.00;95305.06;5052377;27;20561;-71
2022/05/21 07:10:56;;;;;;;4.15;2.00;;;;;;;17.52;51.87;95304.53;5067074;27;20566;-67
2022/05/21 07:13:24;;;;;;;4.85;2.92;;;;;;;17.74;54.44;95297.19;5055099;27;20051;-66
2022/05/21 07:15:52;;;;;;;5.65;2.28;;;;;;;17.98;54.09;95290.59;5033853;27;20064;-67
2022/05/21 07:18:21;;;;;;;5.95;2.08;;;;;;;18.22;49.01;95301.34;5058228;27;20048;-67
2022/05/21 07:20:49;;;;;;;4.78;2.45;;;;;;;18.29;48.25;95296.59;5051795;27;20040;-68
2022/05/21 07:23:17;;;;;;;4.50;2.03;;;;;;;18.40;46.88;95298.16;5067295;27;20490;-67
2022/05/21 07:25:47;;;;;;;4.65;2.22;;;;;;;18.42;46.31;95290.78;5044749;27;20138;-68
2022/05/21 07:28:15;;;;;;;7.03;2.83;;;;;;;18.53;48.79;95287.03;5058880;27;20271;-67
2022/05/21 07:30:44;;;;;;;7.05;2.03;;;;;;;18.67;50.56;95275.88;5055217;27;20055;-70
2022/05/21 07:33:14;;;;;;;5.22;2.33;;;;;;;18.97;47.63;95274.19;5067493;27;20043;-72
2022/05/21 07:35:43;;;;;;;7.32;2.05;;;;;;;19.17;47.54;95281.97;5057877;27;20045;-72
2022/05/21 07:38:13;;;;;;;4.75;1.95;;;;;;;19.39;47.35;95280.78;5037065;27;20050;-72
2022/05/21 07:40:45;;;;;;;8.07;2.65;;;;;;;19.44;45.95;95278.09;5070559;27;20095;-72
2022/05/21 07:43:20;;;;;;;9.25;2.03;;;;;;;19.59;43.99;95262.16;5051817;27;20482;-73
2022/05/21 07:45:48;;;;;;;3.38;1.88;;;;;;;19.87;45.40;95270.38;5136382;27;20037;-72
2022/05/21 07:48:18;;;;;;;4.75;2.10;;;;;;;20.11;43.93;95270.41;5062244;27;20105;-72
2022/05/21 07:50:51;;;;;;;6.20;2.22;;;;;;;20.31;40.92;95269.41;5132309;27;20045;-72
2022/05/21 07:53:21;;;;;;;8.68;1.58;;;;;;;20.49;42.50;95264.44;5036693;27;20041;-72
2022/05/21 07:55:51;;;;;;;2.75;1.60;;;;;;;20.68;39.91;95267.94;5019070;27;20033;-71
2022/05/21 07:58:19;;;;;;;7.65;1.73;;;;;;;20.75;35.86;95268.38;5033309;27;20057;-74
2022/05/21 08:00:46;;;;;;;7.05;1.95;;;;;;;20.95;38.00;95258.59;5037444;27;20059;-72
2022/05/21 08:03:14;;;;;;;1.92;1.20;;;;;;;21.20;35.21;95258.22;5040112;27;20042;-74
2022/05/21 08:05:42;;;;;;;3.15;1.50;;;;;;;21.37;36.67;95251.63;5034928;27;20048;-71
2022/05/21 08:08:09;;;;;;;5.53;1.60;;;;;;;21.53;36.07;95239.72;5039534;27;20037;-72
2022/05/21 08:10:39;;;;;;;4.20;1.60;;;;;;;21.76;33.30;95247.84;5039113;27;20527;-72
2022/05/21 08:13:07;;;;;;;6.63;1.35;;;;;;;21.72;33.85;95244.22;5037184;27;20068;-72
2022/05/21 08:15:34;;;;;;;6.88;1.73;;;;;;;21.76;33.88;95240.66;5038877;27;20052;-72
2022/05/21 08:18:04;;;;;;;6.15;2.17;;;;;;;21.86;35.51;95237.06;5039085;27;20045;-72
2022/05/21 08:20:33;;;;;;;3.47;1.90;;;;;;;22.06;34.84;95243.09;5036365;27;20045;-71
2022/05/21 08:28:32;;;;;;;3.03;1.83;;;;;;;22.06;35.28;95245.75;5043505;27;20603;-72
2022/05/21 08:31:01;;;;;;;6.30;3.05;;;;;;;22.35;34.61;95226.13;5039308;27;20056;-72
2022/05/21 08:33:28;;;;;;;12.98;1.63;;;;;;;22.37;34.10;95237.22;5041747;27;20427;-72
2022/05/21 08:35:55;;;;;;;4.80;1.60;;;;;;;22.68;32.87;95235.50;5040500;27;20076;-72
2022/05/21 08:38:22;;;;;;;3.13;1.30;;;;;;;22.82;33.61;95240.81;5041937;27;20045;-72
2022/05/21 08:40:56;;;;;;;1.80;1.17;;;;;;;22.99;33.00;95226.09;5045955;27;20566;-72
2022/05/21 08:43:53;;;;;;;5.17;2.10;;;;;;;23.20;32.70;95229.13;5045652;27;20100;-72
2022/05/21 08:46:52;;;;;;;4.22;1.80;;;;;;;23.14;33.20;95225.81;5126052;27;20809;-72
2022/05/21 08:49:41;;;;;;;5.28;1.52;;;;;;;23.18;33.24;95220.66;5063388;27;20051;-72
2022/05/21 08:52:24;;;;;;;3.47;1.67;;;;;;;23.29;32.70;95214.78;5069347;27;20033;-71
2022/05/21 08:54:54;;;;;;;5.55;1.95;;;;;;;23.56;32.63;95214.97;5091435;27;20033;-71
2022/05/21 08:57:41;;;;;;;3.72;1.70;;;;;;;23.48;33.02;95209.31;5081343;27;20513;-71
2022/05/21 09:00:13;;;;;;;4.65;1.63;;;;;;;23.68;32.38;95207.22;5037928;27;20105;-71
2022/05/21 09:02:41;;;;;;;6.47;1.17;;;;;;;23.87;33.32;95198.28;5135329;27;20059;-71
2022/05/21 09:05:12;;;;;;;4.95;1.92;;;;;;;23.77;33.07;95200.06;5085617;27;20365;-72
2022/05/21 09:08:09;;;;;;;2.47;1.30;;;;;;;23.96;32.40;95193.78;5058084;27;20095;-72
2022/05/21 09:10:50;;;;;;;4.95;1.60;;;;;;;24.12;32.22;95210.09;5046321;27;20122;-71
2022/05/21 09:13:35;;;;;;;5.05;1.60;;;;;;;24.34;33.52;95211.88;5056343;27;20059;-71
2022/05/21 09:18:49;;;;;;;2.75;1.35;;;;;;;24.71;31.25;95209.81;5064855;27;20038;-71
2022/05/21 09:21:19;;;;;;;2.33;1.33;;;;;;;24.86;30.62;95217.34;5039592;27;20045;-72
2022/05/21 09:23:56;;;;;;;4.63;2.08;;;;;;;24.83;31.14;95210.00;5051193;27;20049;-71
2022/05/21 09:26:28;;;;;;;4.32;2.22;;;;;;;24.84;28.04;95187.56;5041040;27;21123;-72
2022/05/21 09:29:20;;;;;;;3.28;1.25;;;;;;;25.03;29.22;95200.59;5044793;27;20045;-72
2022/05/21 09:31:48;;;;;;;2.22;1.48;;;;;;;25.19;30.09;95193.69;5074245;27;20146;-72
2022/05/21 09:34:28;;;;;;;2.70;1.52;;;;;;;25.61;29.58;95187.84;5078429;27;20049;-71
2022/05/21 09:36:57;;;;;;;2.95;1.63;;;;;;;25.85;27.22;95191.84;5053977;27;20045;-70
2022/05/21 09:39:34;;;;;;;3.45;1.40;;;;;;;25.57;26.42;95186.91;5114474;27;20068;-72
2022/05/21 09:45:23;;;;;;;2.08;1.33;;;;;;;25.91;26.90;95175.34;5076229;27;20049;-72
2022/05/21 09:48:12;;;;;;;1.80;1.13;;;;;;;26.04;27.64;95194.94;5077956;27;20048;-71
2022/05/21 09:50:50;;;;;;;1.70;0.98;;;;;;;25.80;27.89;95184.00;5052832;27;20487;-77
2022/05/21 09:53:26;;;;;;;4.68;1.95;;;;;;;26.11;27.72;95200.56;5071418;27;20036;-71
2022/05/21 09:56:19;;;;;;;3.47;1.27;;;;;;;26.12;27.48;95191.44;5048868;27;20058;-72
2022/05/21 09:58:50;;;;;;;3.92;1.10;;;;;;;26.30;27.07;95191.34;5053359;27;20051;-71
2022/05/21 10:01:36;;;;;;;1.38;0.82;;;;;;;26.32;27.20;95178.47;5071681;27;20581;-76
2022/05/21 10:04:34;;;;;;;8.88;2.00;;;;;;;26.63;28.38;95177.34;5076676;27;20038;-73
2022/05/21 10:10:58;;;;;;;5.15;1.30;;;;;;;26.74;26.37;95173.22;5038616;27;20120;-71
2022/05/21 10:13:06;;;;;;;3.42;1.50;;;;;;;27.04;26.71;95154.41;5051520;27;20040;-72
2022/05/21 10:15:42;;;;;;;1.65;1.10;;;;;;;27.08;25.96;95152.63;5039229;27;21327;-71
2022/05/21 10:18:39;;;;;;;4.40;1.35;;;;;;;27.13;26.35;95141.75;5034868;27;20081;-73
2022/05/21 10:21:17;;;;;;;5.80;1.20;;;;;;;27.17;25.66;95121.28;5045166;27;20061;-73
2022/05/21 10:23:51;;;;;;;3.88;1.25;;;;;;;27.72;25.15;95145.25;5048716;27;20041;-73
2022/05/21 10:26:38;;;;;;;1.75;1.05;;;;;;;27.77;24.87;95142.38;5068000;27;20053;-72
2022/05/21 10:29:11;;;;;;;3.05;1.23;;;;;;;27.79;24.93;95118.72;5047057;27;20505;-71
2022/05/21 10:32:05;;;;;;;2.15;1.20;;;;;;;28.02;24.10;95125.22;5036878;27;20041;-70
2022/05/21 10:34:35;;;;;;;2.58;1.08;;;;;;;28.19;24.50;95120.75;5043085;27;20053;-71
2022/05/21 10:37:11;;;;;;;2.75;1.23;;;;;;;28.50;25.63;95119.34;5033968;27;20660;-72
2022/05/21 10:40:13;;;;;;;3.65;1.20;;;;;;;28.51;23.64;95097.59;5038724;27;20042;-72
2022/05/21 10:43:07;;;;;;;2.22;1.00;;;;;;;28.77;22.79;95107.94;5041187;27;20643;-71
2022/05/21 10:46:15;;;;;;;2.67;1.23;;;;;;;28.73;22.49;95115.06;5038833;27;20045;-71
2022/05/21 10:49:00;;;;;;;3.13;1.00;;;;;;;29.06;22.42;95116.72;5137889;27;20048;-71
2022/05/21 10:51:37;;;;;;;2.33;0.90;;;;;;;28.77;22.65;95107.94;5052152;27;20635;-71
2022/05/21 10:54:15;;;;;;;1.70;1.33;;;;;;;28.75;22.33;95110.16;5081725;27;20134;-71
2022/05/21 10:57:09;;;;;;;2.95;1.33;;;;;;;28.85;22.66;95097.41;5056076;27;20083;-72
2022/05/21 11:00:23;;;;;;;2.20;1.13;;;;;;;29.21;22.85;95093.00;5062075;27;20046;-72
2022/05/21 11:03:06;;;;;;;4.40;1.00;;;;;;;29.46;21.41;95078.34;5021554;27;20543;-72
2022/05/21 11:06:03;;;;;;;4.60;1.08;;;;;;;29.67;21.87;95079.97;5039650;27;20093;-72
2022/05/21 11:08:55;;;;;;;1.40;0.80;;;;;;;29.62;21.25;95069.50;5044400;27;20041;-72
2022/05/21 11:11:40;;;;;;;2.00;0.73;;;;;;;30.00;20.09;95074.25;5061516;27;20032;-72
2022/05/21 11:14:18;;;;;;;2.58;1.42;;;;;;;30.25;20.33;95074.78;5071323;27;20052;-72
2022/05/21 11:16:53;;;;;;;1.25;0.98;;;;;;;29.66;21.58;95048.91;5041302;27;20032;-71
2022/05/21 11:19:38;;;;;;;0.80;0.60;;;;;;;29.87;22.24;95049.41;5063931;27;20496;-72
2022/05/21 11:22:09;;;;;;;6.70;3.03;;;;;;;29.97;21.86;95041.94;5034918;27;20430;-72
2022/05/21 11:25:10;;;;;;;1.77;1.10;;;;;;;29.95;21.62;95038.84;5038849;27;20807;-71
2022/05/21 11:27:43;;;;;;;1.52;0.90;;;;;;;29.65;22.21;95033.91;5020399;27;20565;-73
2022/05/21 11:30:16;;;;;;;2.70;1.15;;;;;;;29.94;20.70;95021.94;5038894;27;20451;-72
2022/05/21 11:38:44;;;;;;;4.57;2.20;;;;;;;31.02;21.29;95035.63;5039725;27;20113;-72
2022/05/21 11:41:27;;;;;;;1.58;1.27;;;;;;;31.25;19.92;95032.19;5032169;27;20037;-72
2022/05/21 11:47:06;;;;;;;1.95;1.35;;;;;;;31.23;21.48;95023.69;5036111;27;20041;-72
2022/05/21 11:49:37;;;;;;;3.88;1.70;;;;;;;31.16;21.01;95023.56;5050277;27;20460;-72
2022/05/21 11:52:25;;;;;;;2.50;1.40;;;;;;;31.90;20.62;95011.66;5038126;27;20055;-71
2022/05/21 11:55:09;;;;;;;2.97;1.13;;;;;;;31.82;20.42;95025.03;5063509;27;20072;-72
2022/05/21 11:57:40;;;;;;;1.13;0.98;;;;;;;31.41;20.58;95003.22;5025891;27;20603;-72
2022/05/21 12:00:24;;;;;;;4.47;0.90;;;;;;;31.58;20.24;95001.97;5047188;27;20055;-72
2022/05/21 12:02:53;;;;;;;27.75;12.52;;;;;;;32.10;20.24;95005.03;5063387;27;20037;-72
2022/05/21 12:05:37;;;;;;;6.32;2.83;;;;;;;32.31;20.77;94998.38;5093062;27;20070;-72
2022/05/21 12:08:23;;;;;;;2.00;1.27;;;;;;;33.00;18.96;94994.50;5062132;27;20045;-72
2022/05/21 12:11:06;;;;;;;5.32;3.00;;;;;;;32.83;20.04;94991.25;5069300;27;20051;-72
2022/05/21 12:13:33;;;;;;;3.50;1.10;;;;;;;32.53;20.16;94986.69;5062867;27;20511;-72
2022/05/21 12:16:15;;;;;;;1.52;1.27;;;;;;;32.85;19.34;94978.19;5035853;27;20576;-72
2022/05/21 12:18:54;;;;;;;3.35;1.85;;;;;;;32.51;20.06;94997.06;5063290;27;20048;-72
2022/05/21 12:21:30;;;;;;;2.13;1.20;;;;;;;32.41;20.13;94981.53;5082019;27;20053;-72
2022/05/21 12:23:57;;;;;;;1.55;1.05;;;;;;;31.77;20.99;94976.09;5139451;27;20078;-71
2022/05/21 12:26:33;;;;;;;3.25;1.63;;;;;;;31.82;20.42;94968.47;5047251;27;20044;-72
2022/05/21 12:29:12;;;;;;;3.30;1.42;;;;;;;32.02;20.51;94976.44;5054677;27;20048;-71
2022/05/21 12:31:55;;;;;;;3.53;1.00;;;;;;;31.78;20.76;94962.28;5058068;27;20126;-72
2022/05/21 12:34:36;;;;;;;3.17;0.98;;;;;;;30.96;21.53;94951.00;5072164;27;20041;-71
2022/05/21 12:37:03;;;;;;;2.83;1.30;;;;;;;31.62;21.00;94954.38;5078129;27;20042;-71